<?xml version="1.0" encoding="UTF-8" standalone="no" ?>
<gpx xmlns="http://www.topografix.com/GPX/1/1" xmlns:xsi="http://www.w3.org/2001/XMLSchema-instance" xsi:schemaLocation="http://www.topografix.com/GPX/1/1 http://www.topografix.com/GPX/1/1/gpx.xsd" version="1.1" creator="VisuGPX - https://www.visugpx.com">
  <metadata>
    <name>Balcons-de-la-Loue-43-700</name>
    <desc><![CDATA[Les balcons de la Loue - 43 km - D= 700 m]]></desc>
  </metadata>
  <trk>
    <name><![CDATA[Balcons-de-la-Loue-43-700]]></name>
    <trkseg>
      <trkpt lat="47.06835" lon="6.20502">
        <ele>345.9</ele>
      </trkpt>
      <trkpt lat="47.06766" lon="6.20535">
        <ele>346.2</ele>
      </trkpt>
      <trkpt lat="47.06641" lon="6.20597">
        <ele>350</ele>
        <time>2020-08-22T08:24:05Z</time>
      </trkpt>
      <trkpt lat="47.06574" lon="6.20691">
        <ele>351</ele>
        <time>2020-08-22T08:24:26Z</time>
      </trkpt>
      <trkpt lat="47.065" lon="6.2091">
        <ele>350</ele>
        <time>2020-08-22T08:25:05Z</time>
      </trkpt>
      <trkpt lat="47.06521" lon="6.20992">
        <ele>349</ele>
        <time>2020-08-22T08:25:19Z</time>
      </trkpt>
      <trkpt lat="47.06433" lon="6.21318">
        <ele>349</ele>
        <time>2020-08-22T08:26:15Z</time>
      </trkpt>
      <trkpt lat="47.06442" lon="6.21391">
        <ele>348</ele>
        <time>2020-08-22T08:26:27Z</time>
      </trkpt>
      <trkpt lat="47.06544" lon="6.21451">
        <ele>347</ele>
        <time>2020-08-22T08:26:52Z</time>
      </trkpt>
      <trkpt lat="47.06465" lon="6.21601">
        <ele>350</ele>
        <time>2020-08-22T08:27:22Z</time>
      </trkpt>
      <trkpt lat="47.06509" lon="6.21666">
        <ele>350</ele>
        <time>2020-08-22T08:27:37Z</time>
      </trkpt>
      <trkpt lat="47.0662" lon="6.21867">
        <ele>359</ele>
        <time>2020-08-22T08:28:18Z</time>
      </trkpt>
      <trkpt lat="47.06731" lon="6.21897">
        <ele>364</ele>
        <time>2020-08-22T08:28:45Z</time>
      </trkpt>
      <trkpt lat="47.06883" lon="6.22125">
        <ele>385</ele>
        <time>2020-08-22T08:29:35Z</time>
      </trkpt>
      <trkpt lat="47.07" lon="6.22309">
        <ele>395</ele>
        <time>2020-08-22T08:30:15Z</time>
      </trkpt>
      <trkpt lat="47.0703" lon="6.22417">
        <ele>415</ele>
        <time>2020-08-22T08:30:34Z</time>
      </trkpt>
      <trkpt lat="47.07111" lon="6.2249">
        <ele>416</ele>
        <time>2020-08-22T08:30:56Z</time>
      </trkpt>
      <trkpt lat="47.07158" lon="6.22554">
        <ele>434</ele>
        <time>2020-08-22T08:31:11Z</time>
      </trkpt>
      <trkpt lat="47.07059" lon="6.22502">
        <ele>435</ele>
        <time>2020-08-22T08:31:36Z</time>
      </trkpt>
      <trkpt lat="47.0691" lon="6.22331">
        <ele>434</ele>
        <time>2020-08-22T08:32:20Z</time>
      </trkpt>
      <trkpt lat="47.06778" lon="6.22223">
        <ele>440</ele>
        <time>2020-08-22T08:32:55Z</time>
      </trkpt>
      <trkpt lat="47.0669" lon="6.22198">
        <ele>443</ele>
        <time>2020-08-22T08:33:16Z</time>
      </trkpt>
      <trkpt lat="47.06617" lon="6.22228">
        <ele>440</ele>
        <time>2020-08-22T08:33:34Z</time>
      </trkpt>
      <trkpt lat="47.06594" lon="6.22352">
        <ele>456</ele>
        <time>2020-08-22T08:33:54Z</time>
      </trkpt>
      <trkpt lat="47.06606" lon="6.22481">
        <ele>458</ele>
        <time>2020-08-22T08:34:15Z</time>
      </trkpt>
      <trkpt lat="47.06658" lon="6.22575">
        <ele>465</ele>
        <time>2020-08-22T08:34:34Z</time>
      </trkpt>
      <trkpt lat="47.06761" lon="6.22713">
        <ele>475</ele>
        <time>2020-08-22T08:35:07Z</time>
      </trkpt>
      <trkpt lat="47.0681" lon="6.22867">
        <ele>496</ele>
        <time>2020-08-22T08:35:34Z</time>
      </trkpt>
      <trkpt lat="47.06819" lon="6.22807">
        <ele>492</ele>
        <time>2020-08-22T08:35:43Z</time>
      </trkpt>
      <trkpt lat="47.06781" lon="6.2267">
        <ele>492</ele>
        <time>2020-08-22T08:36:07Z</time>
      </trkpt>
      <trkpt lat="47.06693" lon="6.22571">
        <ele>484</ele>
        <time>2020-08-22T08:36:33Z</time>
      </trkpt>
      <trkpt lat="47.06647" lon="6.22412">
        <ele>495</ele>
        <time>2020-08-22T08:37:00Z</time>
      </trkpt>
      <trkpt lat="47.06685" lon="6.22326">
        <ele>495</ele>
        <time>2020-08-22T08:37:17Z</time>
      </trkpt>
      <trkpt lat="47.06761" lon="6.22417">
        <ele>518</ele>
        <time>2020-08-22T08:37:40Z</time>
      </trkpt>
      <trkpt lat="47.06835" lon="6.22561">
        <ele>513.2</ele>
      </trkpt>
      <trkpt lat="47.06878" lon="6.22612">
        <ele>517.6</ele>
      </trkpt>
      <trkpt lat="47.06977" lon="6.22691">
        <ele>529</ele>
        <time>2020-08-22T08:39:46Z</time>
      </trkpt>
      <trkpt lat="47.0705" lon="6.22756">
        <ele>542</ele>
        <time>2020-08-22T08:40:06Z</time>
      </trkpt>
      <trkpt lat="47.0717" lon="6.22816">
        <ele>550</ele>
        <time>2020-08-22T08:40:36Z</time>
      </trkpt>
      <trkpt lat="47.07082" lon="6.22794">
        <ele>553</ele>
        <time>2020-08-22T08:40:57Z</time>
      </trkpt>
      <trkpt lat="47.07003" lon="6.22794">
        <ele>553</ele>
        <time>2020-08-22T08:41:15Z</time>
      </trkpt>
      <trkpt lat="47.06974" lon="6.22889">
        <ele>558</ele>
        <time>2020-08-22T08:41:32Z</time>
      </trkpt>
      <trkpt lat="47.06936" lon="6.23009">
        <ele>568</ele>
        <time>2020-08-22T08:41:53Z</time>
      </trkpt>
      <trkpt lat="47.06869" lon="6.23073">
        <ele>574</ele>
        <time>2020-08-22T08:42:11Z</time>
      </trkpt>
      <trkpt lat="47.06752" lon="6.2312">
        <ele>577</ele>
        <time>2020-08-22T08:42:40Z</time>
      </trkpt>
      <trkpt lat="47.06667" lon="6.2315">
        <ele>582</ele>
        <time>2020-08-22T08:43:00Z</time>
      </trkpt>
      <trkpt lat="47.06617" lon="6.23159">
        <ele>584</ele>
        <time>2020-08-22T08:43:12Z</time>
      </trkpt>
      <trkpt lat="47.06793" lon="6.23193">
        <ele>604</ele>
        <time>2020-08-22T08:43:53Z</time>
      </trkpt>
      <trkpt lat="47.06951" lon="6.2315">
        <ele>614</ele>
        <time>2020-08-22T08:44:31Z</time>
      </trkpt>
      <trkpt lat="47.07068" lon="6.23">
        <ele>611</ele>
        <time>2020-08-22T08:45:07Z</time>
      </trkpt>
      <trkpt lat="47.07246" lon="6.23022">
        <ele>632</ele>
        <time>2020-08-22T08:45:49Z</time>
      </trkpt>
      <trkpt lat="47.07336" lon="6.22983">
        <ele>635</ele>
        <time>2020-08-22T08:46:11Z</time>
      </trkpt>
      <trkpt lat="47.07377" lon="6.22919">
        <ele>627</ele>
        <time>2020-08-22T08:46:25Z</time>
      </trkpt>
      <trkpt lat="47.07512" lon="6.22876">
        <ele>637</ele>
        <time>2020-08-22T08:46:57Z</time>
      </trkpt>
      <trkpt lat="47.07585" lon="6.22936">
        <ele>645</ele>
        <time>2020-08-22T08:47:16Z</time>
      </trkpt>
      <trkpt lat="47.07678" lon="6.22734">
        <ele>636</ele>
        <time>2020-08-22T08:47:55Z</time>
      </trkpt>
      <trkpt lat="47.07713" lon="6.22515">
        <ele>625</ele>
        <time>2020-08-22T08:48:31Z</time>
      </trkpt>
      <trkpt lat="47.0767" lon="6.22408">
        <ele>633</ele>
        <time>2020-08-22T08:48:51Z</time>
      </trkpt>
      <trkpt lat="47.07597" lon="6.22326">
        <ele>629</ele>
        <time>2020-08-22T08:49:12Z</time>
      </trkpt>
      <trkpt lat="47.07567" lon="6.22172">
        <ele>629</ele>
        <time>2020-08-22T08:49:38Z</time>
      </trkpt>
      <trkpt lat="47.07541" lon="6.22129">
        <ele>619</ele>
        <time>2020-08-22T08:49:47Z</time>
      </trkpt>
      <trkpt lat="47.07497" lon="6.21983">
        <ele>623</ele>
        <time>2020-08-22T08:50:12Z</time>
      </trkpt>
      <trkpt lat="47.07433" lon="6.21876">
        <ele>616</ele>
        <time>2020-08-22T08:50:35Z</time>
      </trkpt>
      <trkpt lat="47.07366" lon="6.21794">
        <ele>616</ele>
        <time>2020-08-22T08:50:55Z</time>
      </trkpt>
      <trkpt lat="47.07295" lon="6.21683">
        <ele>617</ele>
        <time>2020-08-22T08:51:19Z</time>
      </trkpt>
      <trkpt lat="47.07246" lon="6.21614">
        <ele>609</ele>
        <time>2020-08-22T08:51:35Z</time>
      </trkpt>
      <trkpt lat="47.07357" lon="6.21541">
        <ele>615</ele>
        <time>2020-08-22T08:52:04Z</time>
      </trkpt>
      <trkpt lat="47.07483" lon="6.21485">
        <ele>620</ele>
        <time>2020-08-22T08:52:34Z</time>
      </trkpt>
      <trkpt lat="47.07544" lon="6.21404">
        <ele>619</ele>
        <time>2020-08-22T08:52:54Z</time>
      </trkpt>
      <trkpt lat="47.07561" lon="6.21266">
        <ele>611</ele>
        <time>2020-08-22T08:53:16Z</time>
      </trkpt>
      <trkpt lat="47.07541" lon="6.21103">
        <ele>605</ele>
        <time>2020-08-22T08:53:42Z</time>
      </trkpt>
      <trkpt lat="47.07529" lon="6.20932">
        <ele>597</ele>
        <time>2020-08-22T08:54:10Z</time>
      </trkpt>
      <trkpt lat="47.07564" lon="6.20769">
        <ele>589</ele>
        <time>2020-08-22T08:54:37Z</time>
      </trkpt>
      <trkpt lat="47.0762" lon="6.20631">
        <ele>581</ele>
        <time>2020-08-22T08:55:02Z</time>
      </trkpt>
      <trkpt lat="47.07708" lon="6.2058">
        <ele>575</ele>
        <time>2020-08-22T08:55:24Z</time>
      </trkpt>
      <trkpt lat="47.07772" lon="6.20661">
        <ele>574</ele>
        <time>2020-08-22T08:55:44Z</time>
      </trkpt>
      <trkpt lat="47.07798" lon="6.20786">
        <ele>566</ele>
        <time>2020-08-22T08:56:05Z</time>
      </trkpt>
      <trkpt lat="47.07792" lon="6.2088">
        <ele>573</ele>
        <time>2020-08-22T08:56:20Z</time>
      </trkpt>
      <trkpt lat="47.07877" lon="6.21082">
        <ele>542</ele>
        <time>2020-08-22T08:56:58Z</time>
      </trkpt>
      <trkpt lat="47.07883" lon="6.20987">
        <ele>531</ele>
        <time>2020-08-22T08:57:13Z</time>
      </trkpt>
      <trkpt lat="47.0786" lon="6.20893">
        <ele>536</ele>
        <time>2020-08-22T08:57:29Z</time>
      </trkpt>
      <trkpt lat="47.07857" lon="6.20812">
        <ele>534</ele>
        <time>2020-08-22T08:57:42Z</time>
      </trkpt>
      <trkpt lat="47.07895" lon="6.20683">
        <ele>514</ele>
        <time>2020-08-22T08:58:04Z</time>
      </trkpt>
      <trkpt lat="47.079" lon="6.20558">
        <ele>505</ele>
        <time>2020-08-22T08:58:24Z</time>
      </trkpt>
      <trkpt lat="47.07883" lon="6.20417">
        <ele>498</ele>
        <time>2020-08-22T08:58:47Z</time>
      </trkpt>
      <trkpt lat="47.07912" lon="6.20185">
        <ele>473</ele>
        <time>2020-08-22T08:59:24Z</time>
      </trkpt>
      <trkpt lat="47.07918" lon="6.1994">
        <ele>447</ele>
        <time>2020-08-22T09:00:03Z</time>
      </trkpt>
      <trkpt lat="47.08014" lon="6.19902">
        <ele>422</ele>
        <time>2020-08-22T09:00:26Z</time>
      </trkpt>
      <trkpt lat="47.08058" lon="6.19979">
        <ele>411</ele>
        <time>2020-08-22T09:00:42Z</time>
      </trkpt>
      <trkpt lat="47.08052" lon="6.20069">
        <ele>418</ele>
        <time>2020-08-22T09:00:57Z</time>
      </trkpt>
      <trkpt lat="47.08052" lon="6.20185">
        <ele>417</ele>
        <time>2020-08-22T09:01:15Z</time>
      </trkpt>
      <trkpt lat="47.08" lon="6.20236">
        <ele>431</ele>
        <time>2020-08-22T09:01:30Z</time>
      </trkpt>
      <trkpt lat="47.0802" lon="6.20339">
        <ele>424</ele>
        <time>2020-08-22T09:01:47Z</time>
      </trkpt>
      <trkpt lat="47.08032" lon="6.20494">
        <ele>426</ele>
        <time>2020-08-22T09:02:12Z</time>
      </trkpt>
      <trkpt lat="47.08073" lon="6.20691">
        <ele>412</ele>
        <time>2020-08-22T09:02:44Z</time>
      </trkpt>
      <trkpt lat="47.08102" lon="6.20846">
        <ele>404</ele>
        <time>2020-08-22T09:03:10Z</time>
      </trkpt>
      <trkpt lat="47.08137" lon="6.20773">
        <ele>388</ele>
        <time>2020-08-22T09:03:24Z</time>
      </trkpt>
      <trkpt lat="47.08152" lon="6.2088">
        <ele>384</ele>
        <time>2020-08-22T09:03:42Z</time>
      </trkpt>
      <trkpt lat="47.08155" lon="6.20962">
        <ele>386</ele>
        <time>2020-08-22T09:03:55Z</time>
      </trkpt>
      <trkpt lat="47.08199" lon="6.21151">
        <ele>396</ele>
        <time>2020-08-22T09:04:26Z</time>
      </trkpt>
      <trkpt lat="47.08239" lon="6.21232">
        <ele>391</ele>
        <time>2020-08-22T09:04:42Z</time>
      </trkpt>
      <trkpt lat="47.08286" lon="6.21339">
        <ele>399</ele>
        <time>2020-08-22T09:05:03Z</time>
      </trkpt>
      <trkpt lat="47.08359" lon="6.21421">
        <ele>402</ele>
        <time>2020-08-22T09:05:24Z</time>
      </trkpt>
      <trkpt lat="47.08432" lon="6.2149">
        <ele>405</ele>
        <time>2020-08-22T09:05:44Z</time>
      </trkpt>
      <trkpt lat="47.08514" lon="6.21524">
        <ele>407</ele>
        <time>2020-08-22T09:06:04Z</time>
      </trkpt>
      <trkpt lat="47.08558" lon="6.21593">
        <ele>417</ele>
        <time>2020-08-22T09:06:19Z</time>
      </trkpt>
      <trkpt lat="47.08687" lon="6.21614">
        <ele>418</ele>
        <time>2020-08-22T09:06:50Z</time>
      </trkpt>
      <trkpt lat="47.08771" lon="6.2158">
        <ele>409</ele>
        <time>2020-08-22T09:07:10Z</time>
      </trkpt>
      <trkpt lat="47.08958" lon="6.21666">
        <ele>418</ele>
        <time>2020-08-22T09:07:56Z</time>
      </trkpt>
      <trkpt lat="47.09055" lon="6.217">
        <ele>419</ele>
        <time>2020-08-22T09:08:19Z</time>
      </trkpt>
      <trkpt lat="47.09151" lon="6.21786">
        <ele>425</ele>
        <time>2020-08-22T09:08:45Z</time>
      </trkpt>
      <trkpt lat="47.09288" lon="6.21876">
        <ele>432</ele>
        <time>2020-08-22T09:09:20Z</time>
      </trkpt>
      <trkpt lat="47.09283" lon="6.21824">
        <ele>430</ele>
        <time>2020-08-22T09:09:29Z</time>
      </trkpt>
      <trkpt lat="47.09233" lon="6.21747">
        <ele>425</ele>
        <time>2020-08-22T09:09:46Z</time>
      </trkpt>
      <trkpt lat="47.09265" lon="6.21653">
        <ele>439</ele>
        <time>2020-08-22T09:10:02Z</time>
      </trkpt>
      <trkpt lat="47.09256" lon="6.21528">
        <ele>454</ele>
        <time>2020-08-22T09:10:22Z</time>
      </trkpt>
      <trkpt lat="47.09277" lon="6.21417">
        <ele>480</ele>
        <time>2020-08-22T09:10:41Z</time>
      </trkpt>
      <trkpt lat="47.0921" lon="6.21417">
        <ele>487</ele>
        <time>2020-08-22T09:10:56Z</time>
      </trkpt>
      <trkpt lat="47.09172" lon="6.21477">
        <ele>483</ele>
        <time>2020-08-22T09:11:09Z</time>
      </trkpt>
      <trkpt lat="47.09023" lon="6.2143">
        <ele>490</ele>
        <time>2020-08-22T09:11:45Z</time>
      </trkpt>
      <trkpt lat="47.08906" lon="6.21305">
        <ele>514</ele>
        <time>2020-08-22T09:12:19Z</time>
      </trkpt>
      <trkpt lat="47.08783" lon="6.21318">
        <ele>498</ele>
        <time>2020-08-22T09:12:47Z</time>
      </trkpt>
      <trkpt lat="47.08687" lon="6.21305">
        <ele>501</ele>
        <time>2020-08-22T09:13:10Z</time>
      </trkpt>
      <trkpt lat="47.08619" lon="6.21279">
        <ele>503</ele>
        <time>2020-08-22T09:13:26Z</time>
      </trkpt>
      <trkpt lat="47.08576" lon="6.21288">
        <ele>491</ele>
        <time>2020-08-22T09:13:36Z</time>
      </trkpt>
      <trkpt lat="47.08467" lon="6.21172">
        <ele>493</ele>
        <time>2020-08-22T09:14:08Z</time>
      </trkpt>
      <trkpt lat="47.08429" lon="6.21086">
        <ele>498</ele>
        <time>2020-08-22T09:14:24Z</time>
      </trkpt>
      <trkpt lat="47.08383" lon="6.20743">
        <ele>484</ele>
        <time>2020-08-22T09:15:20Z</time>
      </trkpt>
      <trkpt lat="47.08406" lon="6.20584">
        <ele>477</ele>
        <time>2020-08-22T09:15:46Z</time>
      </trkpt>
      <trkpt lat="47.08523" lon="6.20378">
        <ele>472</ele>
        <time>2020-08-22T09:16:28Z</time>
      </trkpt>
      <trkpt lat="47.0866" lon="6.2037">
        <ele>505</ele>
        <time>2020-08-22T09:17:00Z</time>
      </trkpt>
      <trkpt lat="47.08602" lon="6.20258">
        <ele>501</ele>
        <time>2020-08-22T09:17:23Z</time>
      </trkpt>
      <trkpt lat="47.08502" lon="6.20202">
        <ele>498</ele>
        <time>2020-08-22T09:17:48Z</time>
      </trkpt>
      <trkpt lat="47.08359" lon="6.20215">
        <ele>463</ele>
        <time>2020-08-22T09:18:21Z</time>
      </trkpt>
      <trkpt lat="47.08342" lon="6.20146">
        <ele>468</ele>
        <time>2020-08-22T09:18:33Z</time>
      </trkpt>
      <trkpt lat="47.08353" lon="6.20052">
        <ele>479</ele>
        <time>2020-08-22T09:18:48Z</time>
      </trkpt>
      <trkpt lat="47.08351" lon="6.19906">
        <ele>472</ele>
        <time>2020-08-22T09:19:11Z</time>
      </trkpt>
      <trkpt lat="47.08427" lon="6.1985">
        <ele>489</ele>
        <time>2020-08-22T09:19:31Z</time>
      </trkpt>
      <trkpt lat="47.08532" lon="6.1985">
        <ele>503</ele>
        <time>2020-08-22T09:19:56Z</time>
      </trkpt>
      <trkpt lat="47.0854" lon="6.1976">
        <ele>490</ele>
        <time>2020-08-22T09:20:10Z</time>
      </trkpt>
      <trkpt lat="47.08573" lon="6.19649">
        <ele>490</ele>
        <time>2020-08-22T09:20:29Z</time>
      </trkpt>
      <trkpt lat="47.08649" lon="6.19498">
        <ele>491</ele>
        <time>2020-08-22T09:20:59Z</time>
      </trkpt>
      <trkpt lat="47.08695" lon="6.19327">
        <ele>484</ele>
        <time>2020-08-22T09:21:28Z</time>
      </trkpt>
      <trkpt lat="47.08803" lon="6.19288">
        <ele>478</ele>
        <time>2020-08-22T09:21:54Z</time>
      </trkpt>
      <trkpt lat="47.08891" lon="6.19309">
        <ele>465</ele>
        <time>2020-08-22T09:22:15Z</time>
      </trkpt>
      <trkpt lat="47.08947" lon="6.19412">
        <ele>456</ele>
        <time>2020-08-22T09:22:36Z</time>
      </trkpt>
      <trkpt lat="47.0897" lon="6.19554">
        <ele>451</ele>
        <time>2020-08-22T09:22:59Z</time>
      </trkpt>
      <trkpt lat="47.08944" lon="6.19614">
        <ele>463</ele>
        <time>2020-08-22T09:23:11Z</time>
      </trkpt>
      <trkpt lat="47.0895" lon="6.19713">
        <ele>465</ele>
        <time>2020-08-22T09:23:26Z</time>
      </trkpt>
      <trkpt lat="47.09031" lon="6.19747">
        <ele>451</ele>
        <time>2020-08-22T09:23:46Z</time>
      </trkpt>
      <trkpt lat="47.09093" lon="6.1982">
        <ele>449</ele>
        <time>2020-08-22T09:24:05Z</time>
      </trkpt>
      <trkpt lat="47.09087" lon="6.1991">
        <ele>456</ele>
        <time>2020-08-22T09:24:19Z</time>
      </trkpt>
      <trkpt lat="47.09078" lon="6.20018">
        <ele>469</ele>
        <time>2020-08-22T09:24:36Z</time>
      </trkpt>
      <trkpt lat="47.09096" lon="6.20138">
        <ele>487</ele>
        <time>2020-08-22T09:24:56Z</time>
      </trkpt>
      <trkpt lat="47.09142" lon="6.20022">
        <ele>472</ele>
        <time>2020-08-22T09:25:17Z</time>
      </trkpt>
      <trkpt lat="47.09236" lon="6.20005">
        <ele>484</ele>
        <time>2020-08-22T09:25:39Z</time>
      </trkpt>
      <trkpt lat="47.09271" lon="6.19936">
        <ele>477</ele>
        <time>2020-08-22T09:25:53Z</time>
      </trkpt>
      <trkpt lat="47.093" lon="6.19829">
        <ele>469</ele>
        <time>2020-08-22T09:26:11Z</time>
      </trkpt>
      <trkpt lat="47.09391" lon="6.19833">
        <ele>481</ele>
        <time>2020-08-22T09:26:33Z</time>
      </trkpt>
      <trkpt lat="47.09467" lon="6.19897">
        <ele>482</ele>
        <time>2020-08-22T09:26:53Z</time>
      </trkpt>
      <trkpt lat="47.09513" lon="6.19988">
        <ele>481</ele>
        <time>2020-08-22T09:27:11Z</time>
      </trkpt>
      <trkpt lat="47.09537" lon="6.20108">
        <ele>482</ele>
        <time>2020-08-22T09:27:31Z</time>
      </trkpt>
      <trkpt lat="47.09537" lon="6.20232">
        <ele>501</ele>
        <time>2020-08-22T09:27:51Z</time>
      </trkpt>
      <trkpt lat="47.09578" lon="6.20331">
        <ele>502</ele>
        <time>2020-08-22T09:28:09Z</time>
      </trkpt>
      <trkpt lat="47.09633" lon="6.2049">
        <ele>510</ele>
        <time>2020-08-22T09:28:37Z</time>
      </trkpt>
      <trkpt lat="47.09648" lon="6.20563">
        <ele>516</ele>
        <time>2020-08-22T09:28:50Z</time>
      </trkpt>
      <trkpt lat="47.09727" lon="6.20507">
        <ele>504</ele>
        <time>2020-08-22T09:29:10Z</time>
      </trkpt>
      <trkpt lat="47.09771" lon="6.20434">
        <ele>505</ele>
        <time>2020-08-22T09:29:26Z</time>
      </trkpt>
      <trkpt lat="47.09785" lon="6.20292">
        <ele>503</ele>
        <time>2020-08-22T09:29:48Z</time>
      </trkpt>
      <trkpt lat="47.09829" lon="6.20164">
        <ele>509</ele>
        <time>2020-08-22T09:30:11Z</time>
      </trkpt>
      <trkpt lat="47.09922" lon="6.20146">
        <ele>510</ele>
        <time>2020-08-22T09:30:33Z</time>
      </trkpt>
      <trkpt lat="47.09978" lon="6.20262">
        <ele>510</ele>
        <time>2020-08-22T09:30:56Z</time>
      </trkpt>
      <trkpt lat="47.10045" lon="6.2049">
        <ele>534</ele>
        <time>2020-08-22T09:31:35Z</time>
      </trkpt>
      <trkpt lat="47.10133" lon="6.20387">
        <ele>516</ele>
        <time>2020-08-22T09:32:01Z</time>
      </trkpt>
      <trkpt lat="47.10223" lon="6.20378">
        <ele>518</ele>
        <time>2020-08-22T09:32:23Z</time>
      </trkpt>
      <trkpt lat="47.10267" lon="6.20434">
        <ele>528</ele>
        <time>2020-08-22T09:32:36Z</time>
      </trkpt>
      <trkpt lat="47.10296" lon="6.20503">
        <ele>543</ele>
        <time>2020-08-22T09:32:49Z</time>
      </trkpt>
      <trkpt lat="47.10329" lon="6.20387">
        <ele>525</ele>
        <time>2020-08-22T09:33:09Z</time>
      </trkpt>
      <trkpt lat="47.10329" lon="6.20275">
        <ele>522</ele>
        <time>2020-08-22T09:33:27Z</time>
      </trkpt>
      <trkpt lat="47.10334" lon="6.20121">
        <ele>532</ele>
        <time>2020-08-22T09:33:51Z</time>
      </trkpt>
      <trkpt lat="47.10323" lon="6.20048">
        <ele>528</ele>
        <time>2020-08-22T09:34:03Z</time>
      </trkpt>
      <trkpt lat="47.10349" lon="6.19979">
        <ele>532</ele>
        <time>2020-08-22T09:34:16Z</time>
      </trkpt>
      <trkpt lat="47.1051" lon="6.20048">
        <ele>548</ele>
        <time>2020-08-22T09:34:55Z</time>
      </trkpt>
      <trkpt lat="47.10618" lon="6.19983">
        <ele>541</ele>
        <time>2020-08-22T09:35:22Z</time>
      </trkpt>
      <trkpt lat="47.10594" lon="6.19956">
        <ele>535</ele>
        <time>2020-08-22T09:35:29Z</time>
      </trkpt>
      <trkpt lat="47.10564" lon="6.19806">
        <ele>530</ele>
        <time>2020-08-22T09:35:54Z</time>
      </trkpt>
      <trkpt lat="47.10532" lon="6.19718">
        <ele>530</ele>
        <time>2020-08-22T09:36:10Z</time>
      </trkpt>
      <trkpt lat="47.10482" lon="6.19615">
        <ele>531</ele>
        <time>2020-08-22T09:36:30Z</time>
      </trkpt>
      <trkpt lat="47.10412" lon="6.19519">
        <ele>529</ele>
        <time>2020-08-22T09:36:52Z</time>
      </trkpt>
      <trkpt lat="47.10305" lon="6.19454">
        <ele>519</ele>
        <time>2020-08-22T09:37:19Z</time>
      </trkpt>
      <trkpt lat="47.1025" lon="6.1942">
        <ele>517</ele>
        <time>2020-08-22T09:37:33Z</time>
      </trkpt>
      <trkpt lat="47.10196" lon="6.19347">
        <ele>515</ele>
        <time>2020-08-22T09:37:51Z</time>
      </trkpt>
      <trkpt lat="47.10155" lon="6.19328">
        <ele>511</ele>
        <time>2020-08-22T09:38:01Z</time>
      </trkpt>
      <trkpt lat="47.10118" lon="6.19287">
        <ele>506</ele>
        <time>2020-08-22T09:38:11Z</time>
      </trkpt>
      <trkpt lat="47.10127" lon="6.19246">
        <ele>508</ele>
        <time>2020-08-22T09:38:18Z</time>
      </trkpt>
      <trkpt lat="47.10147" lon="6.19197">
        <ele>509</ele>
        <time>2020-08-22T09:38:27Z</time>
      </trkpt>
      <trkpt lat="47.10101" lon="6.19147">
        <ele>506</ele>
        <time>2020-08-22T09:38:41Z</time>
      </trkpt>
      <trkpt lat="47.10026" lon="6.19107">
        <ele>503</ele>
        <time>2020-08-22T09:38:59Z</time>
      </trkpt>
      <trkpt lat="47.09975" lon="6.19085">
        <ele>503</ele>
        <time>2020-08-22T09:39:12Z</time>
      </trkpt>
      <trkpt lat="47.09877" lon="6.19094">
        <ele>497</ele>
        <time>2020-08-22T09:39:35Z</time>
      </trkpt>
      <trkpt lat="47.0981" lon="6.19122">
        <ele>493</ele>
        <time>2020-08-22T09:39:51Z</time>
      </trkpt>
      <trkpt lat="47.09753" lon="6.1918">
        <ele>485</ele>
        <time>2020-08-22T09:40:07Z</time>
      </trkpt>
      <trkpt lat="47.097" lon="6.19255">
        <ele>474</ele>
        <time>2020-08-22T09:40:24Z</time>
      </trkpt>
      <trkpt lat="47.0966" lon="6.19302">
        <ele>471</ele>
        <time>2020-08-22T09:40:36Z</time>
      </trkpt>
      <trkpt lat="47.09629" lon="6.19353">
        <ele>460</ele>
        <time>2020-08-22T09:40:47Z</time>
      </trkpt>
      <trkpt lat="47.09595" lon="6.19362">
        <ele>460</ele>
        <time>2020-08-22T09:40:55Z</time>
      </trkpt>
      <trkpt lat="47.0949" lon="6.19275">
        <ele>472</ele>
        <time>2020-08-22T09:41:23Z</time>
      </trkpt>
      <trkpt lat="47.09426" lon="6.19181">
        <ele>473</ele>
        <time>2020-08-22T09:41:44Z</time>
      </trkpt>
      <trkpt lat="47.09394" lon="6.18992">
        <ele>478</ele>
        <time>2020-08-22T09:42:15Z</time>
      </trkpt>
      <trkpt lat="47.09353" lon="6.1885">
        <ele>484</ele>
        <time>2020-08-22T09:42:40Z</time>
      </trkpt>
      <trkpt lat="47.09341" lon="6.18726">
        <ele>486</ele>
        <time>2020-08-22T09:43:00Z</time>
      </trkpt>
      <trkpt lat="47.09362" lon="6.18623">
        <ele>480</ele>
        <time>2020-08-22T09:43:17Z</time>
      </trkpt>
      <trkpt lat="47.09423" lon="6.18507">
        <ele>474</ele>
        <time>2020-08-22T09:43:40Z</time>
      </trkpt>
      <trkpt lat="47.0961" lon="6.1852">
        <ele>469</ele>
        <time>2020-08-22T09:44:24Z</time>
      </trkpt>
      <trkpt lat="47.097" lon="6.18554">
        <ele>479</ele>
        <time>2020-08-22T09:44:46Z</time>
      </trkpt>
      <trkpt lat="47.0994" lon="6.18434">
        <ele>465</ele>
        <time>2020-08-22T09:45:45Z</time>
      </trkpt>
      <trkpt lat="47.10039" lon="6.18477">
        <ele>471</ele>
        <time>2020-08-22T09:46:09Z</time>
      </trkpt>
      <trkpt lat="47.10255" lon="6.18653">
        <ele>476</ele>
        <time>2020-08-22T09:47:07Z</time>
      </trkpt>
      <trkpt lat="47.10334" lon="6.187">
        <ele>478</ele>
        <time>2020-08-22T09:47:27Z</time>
      </trkpt>
      <trkpt lat="47.10451" lon="6.18769">
        <ele>480</ele>
        <time>2020-08-22T09:47:56Z</time>
      </trkpt>
      <trkpt lat="47.10548" lon="6.18786">
        <ele>469</ele>
        <time>2020-08-22T09:48:19Z</time>
      </trkpt>
      <trkpt lat="47.10679" lon="6.18846">
        <ele>471</ele>
        <time>2020-08-22T09:48:51Z</time>
      </trkpt>
      <trkpt lat="47.10778" lon="6.18915">
        <ele>463</ele>
        <time>2020-08-22T09:49:16Z</time>
      </trkpt>
      <trkpt lat="47.10805" lon="6.18992">
        <ele>469</ele>
        <time>2020-08-22T09:49:30Z</time>
      </trkpt>
      <trkpt lat="47.10857" lon="6.19069">
        <ele>459</ele>
        <time>2020-08-22T09:49:47Z</time>
      </trkpt>
      <trkpt lat="47.10889" lon="6.19202">
        <ele>460</ele>
        <time>2020-08-22T09:50:10Z</time>
      </trkpt>
      <trkpt lat="47.10881" lon="6.19361">
        <ele>471</ele>
        <time>2020-08-22T09:50:35Z</time>
      </trkpt>
      <trkpt lat="47.10878" lon="6.19498">
        <ele>471</ele>
        <time>2020-08-22T09:50:57Z</time>
      </trkpt>
      <trkpt lat="47.10898" lon="6.19606">
        <ele>465</ele>
        <time>2020-08-22T09:51:15Z</time>
      </trkpt>
      <trkpt lat="47.10942" lon="6.19691">
        <ele>456</ele>
        <time>2020-08-22T09:51:32Z</time>
      </trkpt>
      <trkpt lat="47.10995" lon="6.19773">
        <ele>441</ele>
        <time>2020-08-22T09:51:50Z</time>
      </trkpt>
      <trkpt lat="47.10997" lon="6.19644">
        <ele>426</ele>
        <time>2020-08-22T09:52:10Z</time>
      </trkpt>
      <trkpt lat="47.1105" lon="6.19721">
        <ele>414</ele>
        <time>2020-08-22T09:52:28Z</time>
      </trkpt>
      <trkpt lat="47.11073" lon="6.19618">
        <ele>398</ele>
        <time>2020-08-22T09:52:45Z</time>
      </trkpt>
      <trkpt lat="47.11073" lon="6.19507">
        <ele>393</ele>
        <time>2020-08-22T09:53:03Z</time>
      </trkpt>
      <trkpt lat="47.11041" lon="6.19412">
        <ele>400</ele>
        <time>2020-08-22T09:53:19Z</time>
      </trkpt>
      <trkpt lat="47.11088" lon="6.1934">
        <ele>390</ele>
        <time>2020-08-22T09:53:35Z</time>
      </trkpt>
      <trkpt lat="47.1105" lon="6.19224">
        <ele>392</ele>
        <time>2020-08-22T09:53:56Z</time>
      </trkpt>
      <trkpt lat="47.11044" lon="6.19091">
        <ele>398</ele>
        <time>2020-08-22T09:54:17Z</time>
      </trkpt>
      <trkpt lat="47.10986" lon="6.18829">
        <ele>382</ele>
        <time>2020-08-22T09:55:01Z</time>
      </trkpt>
      <trkpt lat="47.10904" lon="6.18666">
        <ele>378</ele>
        <time>2020-08-22T09:55:33Z</time>
      </trkpt>
      <trkpt lat="47.10764" lon="6.18563">
        <ele>374</ele>
        <time>2020-08-22T09:56:09Z</time>
      </trkpt>
      <trkpt lat="47.10685" lon="6.18541">
        <ele>372</ele>
        <time>2020-08-22T09:56:28Z</time>
      </trkpt>
      <trkpt lat="47.10618" lon="6.18498">
        <ele>369</ele>
        <time>2020-08-22T09:56:45Z</time>
      </trkpt>
      <trkpt lat="47.10524" lon="6.18438">
        <ele>372</ele>
        <time>2020-08-22T09:57:09Z</time>
      </trkpt>
      <trkpt lat="47.10425" lon="6.18387">
        <ele>365</ele>
        <time>2020-08-22T09:57:34Z</time>
      </trkpt>
      <trkpt lat="47.1034" lon="6.18288">
        <ele>361</ele>
        <time>2020-08-22T09:57:59Z</time>
      </trkpt>
      <trkpt lat="47.10273" lon="6.18198">
        <ele>363</ele>
        <time>2020-08-22T09:58:20Z</time>
      </trkpt>
      <trkpt lat="47.10218" lon="6.18172">
        <ele>356</ele>
        <time>2020-08-22T09:58:34Z</time>
      </trkpt>
      <trkpt lat="47.10144" lon="6.18074">
        <ele>352</ele>
        <time>2020-08-22T09:58:57Z</time>
      </trkpt>
      <trkpt lat="47.10089" lon="6.18035">
        <ele>351</ele>
        <time>2020-08-22T09:59:11Z</time>
      </trkpt>
      <trkpt lat="47.10045" lon="6.17988">
        <ele>352</ele>
        <time>2020-08-22T09:59:24Z</time>
      </trkpt>
      <trkpt lat="47.09975" lon="6.17971">
        <ele>347</ele>
        <time>2020-08-22T09:59:41Z</time>
      </trkpt>
      <trkpt lat="47.09925" lon="6.17932">
        <ele>347</ele>
        <time>2020-08-22T09:59:54Z</time>
      </trkpt>
      <trkpt lat="47.09785" lon="6.17859">
        <ele>342</ele>
        <time>2020-08-22T10:00:29Z</time>
      </trkpt>
      <trkpt lat="47.09698" lon="6.17868">
        <ele>338</ele>
        <time>2020-08-22T10:00:49Z</time>
      </trkpt>
      <trkpt lat="47.09654" lon="6.17799">
        <ele>337</ele>
        <time>2020-08-22T10:01:04Z</time>
      </trkpt>
      <trkpt lat="47.09601" lon="6.17597">
        <ele>335</ele>
        <time>2020-08-22T10:01:38Z</time>
      </trkpt>
      <trkpt lat="47.09651" lon="6.17404">
        <ele>343</ele>
        <time>2020-08-22T10:02:11Z</time>
      </trkpt>
      <trkpt lat="47.0973" lon="6.17121">
        <ele>343</ele>
        <time>2020-08-22T10:03:00Z</time>
      </trkpt>
      <trkpt lat="47.09835" lon="6.16859">
        <ele>339</ele>
        <time>2020-08-22T10:03:48Z</time>
      </trkpt>
      <trkpt lat="47.09917" lon="6.16773">
        <ele>340</ele>
        <time>2020-08-22T10:04:12Z</time>
      </trkpt>
      <trkpt lat="47.10185" lon="6.16541">
        <ele>335</ele>
        <time>2020-08-22T10:05:24Z</time>
      </trkpt>
      <trkpt lat="47.10288" lon="6.16507">
        <ele>339</ele>
        <time>2020-08-22T10:05:49Z</time>
      </trkpt>
      <trkpt lat="47.10358" lon="6.16443">
        <ele>340</ele>
        <time>2020-08-22T10:06:08Z</time>
      </trkpt>
      <trkpt lat="47.10425" lon="6.16305">
        <ele>336</ele>
        <time>2020-08-22T10:06:35Z</time>
      </trkpt>
      <trkpt lat="47.10495" lon="6.15971">
        <ele>336</ele>
        <time>2020-08-22T10:07:31Z</time>
      </trkpt>
      <trkpt lat="47.10492" lon="6.15855">
        <ele>333</ele>
        <time>2020-08-22T10:07:49Z</time>
      </trkpt>
      <trkpt lat="47.1046" lon="6.1576">
        <ele>333</ele>
        <time>2020-08-22T10:08:06Z</time>
      </trkpt>
      <trkpt lat="47.1044" lon="6.15645">
        <ele>337</ele>
        <time>2020-08-22T10:08:25Z</time>
      </trkpt>
      <trkpt lat="47.10466" lon="6.15486">
        <ele>340</ele>
        <time>2020-08-22T10:08:51Z</time>
      </trkpt>
      <trkpt lat="47.10551" lon="6.15499">
        <ele>346</ele>
        <time>2020-08-22T10:09:11Z</time>
      </trkpt>
      <trkpt lat="47.10761" lon="6.15653">
        <ele>361</ele>
        <time>2020-08-22T10:10:06Z</time>
      </trkpt>
      <trkpt lat="47.10916" lon="6.15765">
        <ele>373</ele>
        <time>2020-08-22T10:10:46Z</time>
      </trkpt>
      <trkpt lat="47.11114" lon="6.15945">
        <ele>395</ele>
        <time>2020-08-22T10:11:40Z</time>
      </trkpt>
      <trkpt lat="47.11208" lon="6.16057">
        <ele>402</ele>
        <time>2020-08-22T10:12:09Z</time>
      </trkpt>
      <trkpt lat="47.11275" lon="6.16155">
        <ele>404</ele>
        <time>2020-08-22T10:12:31Z</time>
      </trkpt>
      <trkpt lat="47.11348" lon="6.16241">
        <ele>413</ele>
        <time>2020-08-22T10:12:53Z</time>
      </trkpt>
      <trkpt lat="47.11424" lon="6.16275">
        <ele>432</ele>
        <time>2020-08-22T10:13:11Z</time>
      </trkpt>
      <trkpt lat="47.11409" lon="6.16237">
        <ele>435</ele>
        <time>2020-08-22T10:13:18Z</time>
      </trkpt>
      <trkpt lat="47.11363" lon="6.16202">
        <ele>427</ele>
        <time>2020-08-22T10:13:30Z</time>
      </trkpt>
      <trkpt lat="47.11237" lon="6.16018">
        <ele>427</ele>
        <time>2020-08-22T10:14:12Z</time>
      </trkpt>
      <trkpt lat="47.11094" lon="6.15799">
        <ele>435</ele>
        <time>2020-08-22T10:15:00Z</time>
      </trkpt>
      <trkpt lat="47.10986" lon="6.15584">
        <ele>453</ele>
        <time>2020-08-22T10:15:42Z</time>
      </trkpt>
      <trkpt lat="47.10889" lon="6.1543">
        <ele>455</ele>
        <time>2020-08-22T10:16:16Z</time>
      </trkpt>
      <trkpt lat="47.10851" lon="6.1531">
        <ele>458</ele>
        <time>2020-08-22T10:16:37Z</time>
      </trkpt>
      <trkpt lat="47.10822" lon="6.1513">
        <ele>446</ele>
        <time>2020-08-22T10:17:06Z</time>
      </trkpt>
      <trkpt lat="47.10886" lon="6.15014">
        <ele>452</ele>
        <time>2020-08-22T10:17:30Z</time>
      </trkpt>
      <trkpt lat="47.11" lon="6.14954">
        <ele>455</ele>
        <time>2020-08-22T10:17:58Z</time>
      </trkpt>
      <trkpt lat="47.11088" lon="6.15031">
        <ele>459</ele>
        <time>2020-08-22T10:18:22Z</time>
      </trkpt>
      <trkpt lat="47.11164" lon="6.15125">
        <ele>464</ele>
        <time>2020-08-22T10:18:45Z</time>
      </trkpt>
      <trkpt lat="47.11257" lon="6.15164">
        <ele>466</ele>
        <time>2020-08-22T10:19:08Z</time>
      </trkpt>
      <trkpt lat="47.11339" lon="6.15151">
        <ele>475</ele>
        <time>2020-08-22T10:19:27Z</time>
      </trkpt>
      <trkpt lat="47.11377" lon="6.15078">
        <ele>470</ele>
        <time>2020-08-22T10:19:42Z</time>
      </trkpt>
      <trkpt lat="47.11313" lon="6.15044">
        <ele>456</ele>
        <time>2020-08-22T10:19:58Z</time>
      </trkpt>
      <trkpt lat="47.11272" lon="6.14979">
        <ele>442</ele>
        <time>2020-08-22T10:20:12Z</time>
      </trkpt>
      <trkpt lat="47.11281" lon="6.14906">
        <ele>437</ele>
        <time>2020-08-22T10:20:23Z</time>
      </trkpt>
      <trkpt lat="47.11438" lon="6.14842">
        <ele>453</ele>
        <time>2020-08-22T10:21:02Z</time>
      </trkpt>
      <trkpt lat="47.11526" lon="6.14889">
        <ele>472</ele>
        <time>2020-08-22T10:21:23Z</time>
      </trkpt>
      <trkpt lat="47.11555" lon="6.14799">
        <ele>460</ele>
        <time>2020-08-22T10:21:39Z</time>
      </trkpt>
      <trkpt lat="47.11573" lon="6.14692">
        <ele>450</ele>
        <time>2020-08-22T10:21:57Z</time>
      </trkpt>
      <trkpt lat="47.11649" lon="6.14576">
        <ele>455</ele>
        <time>2020-08-22T10:22:22Z</time>
      </trkpt>
      <trkpt lat="47.11733" lon="6.14559">
        <ele>452</ele>
        <time>2020-08-22T10:22:42Z</time>
      </trkpt>
      <trkpt lat="47.11818" lon="6.14636">
        <ele>453</ele>
        <time>2020-08-22T10:23:05Z</time>
      </trkpt>
      <trkpt lat="47.11877" lon="6.14696">
        <ele>454</ele>
        <time>2020-08-22T10:23:22Z</time>
      </trkpt>
      <trkpt lat="47.11856" lon="6.14773">
        <ele>461</ele>
        <time>2020-08-22T10:23:35Z</time>
      </trkpt>
      <trkpt lat="47.1183" lon="6.14868">
        <ele>462</ele>
        <time>2020-08-22T10:23:52Z</time>
      </trkpt>
      <trkpt lat="47.11844" lon="6.14941">
        <ele>467</ele>
        <time>2020-08-22T10:24:04Z</time>
      </trkpt>
      <trkpt lat="47.11877" lon="6.14825">
        <ele>465</ele>
        <time>2020-08-22T10:24:24Z</time>
      </trkpt>
      <trkpt lat="47.11926" lon="6.14696">
        <ele>452</ele>
        <time>2020-08-22T10:24:47Z</time>
      </trkpt>
      <trkpt lat="47.11897" lon="6.14632">
        <ele>446</ele>
        <time>2020-08-22T10:24:59Z</time>
      </trkpt>
      <trkpt lat="47.11874" lon="6.14529">
        <ele>440</ele>
        <time>2020-08-22T10:25:17Z</time>
      </trkpt>
      <trkpt lat="47.11821" lon="6.14469">
        <ele>425</ele>
        <time>2020-08-22T10:25:32Z</time>
      </trkpt>
      <trkpt lat="47.11768" lon="6.14396">
        <ele>414</ele>
        <time>2020-08-22T10:25:49Z</time>
      </trkpt>
      <trkpt lat="47.11701" lon="6.14348">
        <ele>400</ele>
        <time>2020-08-22T10:26:07Z</time>
      </trkpt>
      <trkpt lat="47.11611" lon="6.14383">
        <ele>390</ele>
        <time>2020-08-22T10:26:28Z</time>
      </trkpt>
      <trkpt lat="47.11523" lon="6.14494">
        <ele>383</ele>
        <time>2020-08-22T10:26:55Z</time>
      </trkpt>
      <trkpt lat="47.11459" lon="6.14589">
        <ele>378</ele>
        <time>2020-08-22T10:27:17Z</time>
      </trkpt>
      <trkpt lat="47.11368" lon="6.14653">
        <ele>370</ele>
        <time>2020-08-22T10:27:40Z</time>
      </trkpt>
      <trkpt lat="47.11246" lon="6.14688">
        <ele>360</ele>
        <time>2020-08-22T10:28:09Z</time>
      </trkpt>
      <trkpt lat="47.10913" lon="6.14567">
        <ele>341</ele>
        <time>2020-08-22T10:29:29Z</time>
      </trkpt>
      <trkpt lat="47.10848" lon="6.14563">
        <ele>338</ele>
        <time>2020-08-22T10:29:45Z</time>
      </trkpt>
      <trkpt lat="47.10805" lon="6.14572">
        <ele>336</ele>
        <time>2020-08-22T10:29:55Z</time>
      </trkpt>
      <trkpt lat="47.10787" lon="6.14559">
        <ele>335</ele>
        <time>2020-08-22T10:29:59Z</time>
      </trkpt>
      <trkpt lat="47.10773" lon="6.14636">
        <ele>339</ele>
        <time>2020-08-22T10:30:12Z</time>
      </trkpt>
      <trkpt lat="47.10705" lon="6.14769">
        <ele>342</ele>
        <time>2020-08-22T10:30:39Z</time>
      </trkpt>
      <trkpt lat="47.10644" lon="6.14911">
        <ele>347</ele>
        <time>2020-08-22T10:31:05Z</time>
      </trkpt>
      <trkpt lat="47.10562" lon="6.15022">
        <ele>344</ele>
        <time>2020-08-22T10:31:31Z</time>
      </trkpt>
      <trkpt lat="47.10498" lon="6.15151">
        <ele>342</ele>
        <time>2020-08-22T10:31:57Z</time>
      </trkpt>
      <trkpt lat="47.10472" lon="6.15271">
        <ele>348</ele>
        <time>2020-08-22T10:32:17Z</time>
      </trkpt>
      <trkpt lat="47.1044" lon="6.15413">
        <ele>343</ele>
        <time>2020-08-22T10:32:40Z</time>
      </trkpt>
      <trkpt lat="47.10445" lon="6.15421">
        <ele>343</ele>
        <time>2020-08-22T08:01:39Z</time>
      </trkpt>
      <trkpt lat="47.10419" lon="6.15657">
        <ele>337</ele>
        <time>2020-08-22T08:02:17Z</time>
      </trkpt>
      <trkpt lat="47.1039" lon="6.15846">
        <ele>334</ele>
        <time>2020-08-22T08:02:48Z</time>
      </trkpt>
      <trkpt lat="47.10302" lon="6.16044">
        <ele>335</ele>
        <time>2020-08-22T08:03:25Z</time>
      </trkpt>
      <trkpt lat="47.1025" lon="6.16061">
        <ele>336</ele>
        <time>2020-08-22T08:03:38Z</time>
      </trkpt>
      <trkpt lat="47.10247" lon="6.16112">
        <ele>335</ele>
        <time>2020-08-22T08:03:46Z</time>
      </trkpt>
      <trkpt lat="47.10174" lon="6.16194">
        <ele>335</ele>
        <time>2020-08-22T08:04:07Z</time>
      </trkpt>
      <trkpt lat="47.10165" lon="6.1625">
        <ele>335</ele>
        <time>2020-08-22T08:04:17Z</time>
      </trkpt>
      <trkpt lat="47.10118" lon="6.16245">
        <ele>336</ele>
        <time>2020-08-22T08:04:28Z</time>
      </trkpt>
      <trkpt lat="47.09443" lon="6.16906">
        <ele>337</ele>
        <time>2020-08-22T08:07:37Z</time>
      </trkpt>
      <trkpt lat="47.09367" lon="6.16808">
        <ele>339</ele>
        <time>2020-08-22T08:08:01Z</time>
      </trkpt>
      <trkpt lat="47.09271" lon="6.16889">
        <ele>339</ele>
        <time>2020-08-22T08:08:26Z</time>
      </trkpt>
      <trkpt lat="47.09218" lon="6.17044">
        <ele>342</ele>
        <time>2020-08-22T08:08:54Z</time>
      </trkpt>
      <trkpt lat="47.09192" lon="6.17202">
        <ele>341</ele>
        <time>2020-08-22T08:09:20Z</time>
      </trkpt>
      <trkpt lat="47.08979" lon="6.17524">
        <ele>345</ele>
        <time>2020-08-22T08:10:31Z</time>
      </trkpt>
      <trkpt lat="47.08914" lon="6.1767">
        <ele>339</ele>
        <time>2020-08-22T08:10:59Z</time>
      </trkpt>
      <trkpt lat="47.08827" lon="6.17872">
        <ele>340</ele>
        <time>2020-08-22T08:11:37Z</time>
      </trkpt>
      <trkpt lat="47.08727" lon="6.18005">
        <ele>342</ele>
        <time>2020-08-22T08:12:09Z</time>
      </trkpt>
      <trkpt lat="47.0864" lon="6.18091">
        <ele>342</ele>
        <time>2020-08-22T08:12:33Z</time>
      </trkpt>
      <trkpt lat="47.08219" lon="6.18335">
        <ele>350</ele>
        <time>2020-08-22T08:14:19Z</time>
      </trkpt>
      <trkpt lat="47.08184" lon="6.18352">
        <ele>356</ele>
        <time>2020-08-22T08:14:27Z</time>
      </trkpt>
      <trkpt lat="47.08096" lon="6.18537">
        <ele>351</ele>
        <time>2020-08-22T08:15:03Z</time>
      </trkpt>
      <trkpt lat="47.08038" lon="6.18627">
        <ele>346</ele>
        <time>2020-08-22T08:15:23Z</time>
      </trkpt>
      <trkpt lat="47.07982" lon="6.18661">
        <ele>341</ele>
        <time>2020-08-22T08:15:37Z</time>
      </trkpt>
      <trkpt lat="47.07956" lon="6.18631">
        <ele>352</ele>
        <time>2020-08-22T08:15:45Z</time>
      </trkpt>
      <trkpt lat="47.07626" lon="6.18722">
        <ele>354</ele>
        <time>2020-08-22T08:17:03Z</time>
      </trkpt>
      <trkpt lat="47.07576" lon="6.18786">
        <ele>351</ele>
        <time>2020-08-22T08:17:19Z</time>
      </trkpt>
      <trkpt lat="47.07529" lon="6.18829">
        <ele>355</ele>
        <time>2020-08-22T08:17:32Z</time>
      </trkpt>
      <trkpt lat="47.07497" lon="6.18902">
        <ele>349</ele>
        <time>2020-08-22T08:17:45Z</time>
      </trkpt>
      <trkpt lat="47.07398" lon="6.19018">
        <ele>347</ele>
        <time>2020-08-22T08:18:15Z</time>
      </trkpt>
      <trkpt lat="47.07339" lon="6.19104">
        <ele>348</ele>
        <time>2020-08-22T08:18:34Z</time>
      </trkpt>
      <trkpt lat="47.07298" lon="6.19198">
        <ele>347</ele>
        <time>2020-08-22T08:18:52Z</time>
      </trkpt>
      <trkpt lat="47.07269" lon="6.19254">
        <ele>350</ele>
        <time>2020-08-22T08:19:03Z</time>
      </trkpt>
      <trkpt lat="47.07295" lon="6.19357">
        <ele>347</ele>
        <time>2020-08-22T08:19:21Z</time>
      </trkpt>
      <trkpt lat="47.07266" lon="6.19627">
        <ele>349</ele>
        <time>2020-08-22T08:20:04Z</time>
      </trkpt>
      <trkpt lat="47.0726" lon="6.19696">
        <ele>345</ele>
        <time>2020-08-22T08:20:15Z</time>
      </trkpt>
      <trkpt lat="47.07211" lon="6.20099">
        <ele>348</ele>
        <time>2020-08-22T08:21:21Z</time>
      </trkpt>
      <trkpt lat="47.07176" lon="6.20228">
        <ele>347</ele>
        <time>2020-08-22T08:21:43Z</time>
      </trkpt>
      <trkpt lat="47.0712" lon="6.20348">
        <ele>349</ele>
        <time>2020-08-22T08:22:06Z</time>
      </trkpt>
      <trkpt lat="47.06855" lon="6.20492">
        <ele>346.5</ele>
      </trkpt>
    </trkseg>
  </trk>
</gpx>